createdAt,value
2018-07-27T19:46:02.204Z,52.29
2018-07-27T19:47:16.497Z,51.9
2018-07-27T19:48:30.957Z,51.68
2018-07-27T19:49:44.987Z,52.07
2018-07-27T19:51:00.060Z,52.26
2018-07-27T19:52:14.637Z,52.46
2018-07-27T19:53:28.853Z,52.36
2018-07-27T19:54:43.625Z,52.75
2018-07-27T19:56:04.367Z,52.63
2018-07-27T19:57:47.849Z,53.41
2018-07-27T19:59:02.673Z,53.21
2018-07-27T20:00:17.460Z,53.11
2018-07-27T20:01:31.861Z,53.41
2018-07-27T20:02:46.327Z,53.8
2018-07-27T20:04:00.282Z,54.19
2018-07-27T20:05:15.380Z,53.89
2018-07-27T20:06:29.352Z,53.89
2018-07-27T20:07:43.606Z,54.09
2018-07-27T20:08:58.351Z,54.19
2018-07-27T20:10:13.121Z,54.75
2018-07-27T20:11:27.979Z,54.55
2018-07-27T20:12:42.703Z,54.55
2018-07-27T20:13:56.925Z,54.75
2018-07-27T20:15:11.368Z,55.23
2018-07-27T20:16:25.866Z,54.75
2018-07-27T20:17:40.878Z,55.13
2018-07-27T20:19:20.187Z,55.43
2018-07-27T20:20:34.912Z,55.13
2018-07-27T20:21:49.604Z,55.52
2018-07-27T20:23:04.058Z,55.62
2018-07-27T20:24:19.018Z,55.72
2018-07-27T20:25:33.237Z,55.79
2018-07-27T20:26:48.002Z,55.79
2018-07-27T20:28:02.715Z,55.69
2018-07-27T20:29:18.018Z,55.89
2018-07-27T20:30:32.407Z,56.27
2018-07-27T20:31:47.395Z,56.09
2018-07-27T20:33:02.675Z,56.47
2018-07-27T20:34:16.919Z,56.18
2018-07-27T20:35:31.206Z,56.37
2018-07-27T20:36:45.670Z,56.27
2018-07-27T20:38:00.169Z,57.25
2018-07-27T20:39:14.441Z,56.86
2018-07-27T20:40:29.360Z,57.12
2018-07-27T20:41:43.664Z,57.32
2018-07-27T20:42:58.122Z,57.64
2018-07-27T20:44:12.959Z,57.51
2018-07-27T20:45:28.157Z,57.51
2018-07-27T20:46:42.660Z,57.51
2018-07-27T20:47:57.669Z,57.71
2018-07-27T20:49:12.656Z,58
2018-07-27T20:50:27.351Z,58.39
2018-07-27T20:51:42.499Z,58.2
2018-07-27T20:52:56.746Z,58.1
2018-07-27T20:54:11.467Z,58.1
2018-07-27T20:55:26.314Z,58.07
2018-07-27T20:56:40.490Z,58.69
2018-07-27T20:57:55.463Z,58.36
2018-07-27T20:59:09.925Z,58.17
2018-07-27T21:00:24.465Z,58.75
2018-07-27T21:01:39.157Z,58.75
2018-07-27T21:02:53.612Z,59.05
2018-07-27T21:04:08.296Z,59.05
2018-07-27T21:05:22.520Z,58.95
2018-07-27T21:06:37.467Z,59.14
2018-07-27T21:07:51.940Z,59.43
2018-07-27T21:09:06.145Z,59.23
2018-07-27T21:10:21.158Z,59.33
2018-07-27T21:11:35.850Z,59.23
2018-07-27T21:12:50.077Z,59.69
2018-07-27T21:14:04.814Z,59.14
2018-07-27T21:15:19.541Z,59.23
2018-07-27T21:16:34.621Z,59.82
2018-07-27T21:17:49.336Z,59.72
2018-07-27T21:19:04.309Z,59.59
2018-07-27T21:20:18.527Z,59.92
2018-07-27T21:21:32.595Z,59.79
2018-07-27T21:22:47.844Z,59.79
2018-07-27T21:24:02.453Z,59.79
2018-07-27T21:25:17.163Z,59.79
2018-07-27T21:26:31.285Z,59.99
2018-07-27T21:27:45.987Z,60.28
2018-07-27T21:29:01.196Z,60.08
2018-07-27T21:30:15.658Z,60.67
2018-07-27T21:31:30.458Z,60.57
2018-07-27T21:32:44.664Z,60.77
2018-07-27T21:33:59.389Z,60.67
2018-07-27T21:35:14.233Z,60.67
2018-07-27T21:36:29.649Z,60.67
2018-07-27T21:37:44.010Z,60.67
2018-07-27T21:38:58.435Z,61.15
2018-07-27T21:40:13.089Z,60.86
2018-07-27T21:41:28.357Z,61.15
2018-07-27T21:42:42.535Z,60.93
2018-07-27T21:43:56.216Z,61.61
2018-07-27T21:45:12.079Z,61.41
2018-07-27T21:46:26.780Z,61.35
2018-07-27T21:47:41.669Z,61.25
2018-07-27T21:48:55.867Z,61.12
2018-07-27T21:50:10.020Z,61.32
2018-07-27T21:51:24.235Z,61.32
2018-07-27T21:52:38.735Z,61.51
2018-07-27T21:53:53.491Z,61.71
2018-07-27T21:55:07.477Z,61.71
2018-07-27T21:56:21.941Z,61.71
2018-07-27T21:58:05.858Z,61.8
2018-07-27T21:59:20.660Z,61.9
2018-07-27T22:00:34.682Z,61.9
2018-07-27T22:01:48.542Z,62
2018-07-27T22:03:03.291Z,61.51
2018-07-27T22:04:18.117Z,61.51
2018-07-27T22:05:32.414Z,62.1
2018-07-27T22:06:47.170Z,61.8
2018-07-27T22:08:02.396Z,61.9
2018-07-27T22:09:16.641Z,61.8
2018-07-27T22:10:31.337Z,61.9
2018-07-27T22:11:46.392Z,62
2018-07-27T22:13:00.601Z,62.19
2018-07-27T22:14:15.354Z,62.58
2018-07-27T22:15:30.153Z,62.38
2018-07-27T22:16:44.611Z,62.1
2018-07-27T22:17:58.613Z,62.19
2018-07-27T22:19:13.087Z,62.48
2018-07-27T22:20:27.306Z,62.29
2018-07-27T22:21:41.769Z,62.77
2018-07-27T22:22:56.454Z,62.38
2018-07-27T22:24:11.687Z,62.68
2018-07-27T22:25:26.155Z,62.77
2018-07-27T22:26:40.612Z,62.87
2018-07-27T22:27:55.339Z,62.97
2018-07-27T22:29:10.060Z,63.17
2018-07-27T22:30:25.425Z,63.07
2018-07-27T22:31:40.383Z,62.97
2018-07-27T22:32:55.274Z,63.55
2018-07-27T22:34:09.467Z,63.07
2018-07-27T22:35:23.913Z,63.62
2018-07-27T22:36:38.132Z,63.55
2018-07-27T22:37:52.485Z,63.55
2018-07-27T22:39:06.927Z,63.65
2018-07-27T22:40:21.407Z,63.45
2018-07-27T22:41:35.979Z,63.65
2018-07-27T22:42:51.069Z,63.55
2018-07-27T22:44:05.525Z,63.65
2018-07-27T22:45:19.957Z,63.62
2018-07-27T22:46:34.931Z,63.65
2018-07-27T22:47:49.385Z,63.52
2018-07-27T22:49:03.844Z,63.81
2018-07-27T22:50:17.514Z,63.62
2018-07-27T22:51:32.004Z,63.65
2018-07-27T22:52:45.937Z,63.52
2018-07-27T22:54:00.794Z,63.81
2018-07-27T22:55:16.206Z,63.32
2018-07-27T22:56:30.650Z,63.91
2018-07-27T22:57:44.836Z,63.91
2018-07-27T22:58:59.130Z,63.81
2018-07-27T23:00:13.574Z,63.91
2018-07-27T23:01:28.101Z,64.11
2018-07-27T23:02:42.527Z,64.49
2018-07-27T23:04:43.993Z,64.11
2018-07-27T23:05:58.447Z,64.2
2018-07-27T23:07:12.876Z,64.11
2018-07-27T23:08:27.445Z,64.2
2018-07-27T23:09:42.762Z,64.11
2018-07-27T23:10:57.527Z,64.3
2018-07-27T23:12:11.987Z,64.78
2018-07-27T23:13:26.795Z,64.11
2018-07-27T23:14:40.955Z,64.3
2018-07-27T23:15:55.660Z,64.11
2018-07-27T23:17:10.367Z,64.88
2018-07-27T23:18:24.892Z,64.69
2018-07-27T23:19:38.890Z,64.88
2018-07-27T23:20:53.577Z,64.75
2018-07-27T23:22:08.281Z,64.4
2018-07-27T23:23:22.724Z,64.69
2018-07-27T23:24:37.610Z,65.27
2018-07-27T23:25:52.083Z,65.33
2018-07-27T23:27:07.200Z,65.05
2018-07-27T23:28:21.381Z,65.33
2018-07-27T23:29:36.364Z,65.24
2018-07-27T23:30:50.263Z,65.33
2018-07-27T23:32:05.853Z,65.33
2018-07-27T23:33:20.541Z,65.24
2018-07-27T23:34:35.429Z,65.43
2018-07-27T23:35:50.408Z,64.95
2018-07-27T23:37:05.026Z,65.14
2018-07-27T23:38:19.723Z,65.14
2018-07-27T23:39:34.659Z,65.33
2018-07-27T23:40:49.645Z,64.85
2018-07-27T23:42:04.032Z,65.63
2018-07-27T23:43:18.670Z,65.43
2018-07-27T23:44:33.213Z,65.24
2018-07-27T23:45:47.663Z,65.33
2018-07-27T23:47:02.582Z,66.11
2018-07-27T23:48:17.543Z,65.92
2018-07-27T23:49:31.945Z,65.82
2018-07-27T23:50:45.651Z,66.11
2018-07-27T23:52:00.353Z,66.79
2018-07-27T23:53:15.086Z,66.69
2018-07-27T23:54:29.808Z,66.3
2018-07-27T23:55:44.299Z,66.86
2018-07-27T23:56:58.985Z,66.95
2018-07-27T23:58:13.164Z,66.76
2018-07-27T23:59:27.585Z,66.66
